createdAt,value
2019-05-01T00:01:18.106Z,53.00
2019-05-01T00:04:05.151Z,48.50
2019-05-01T00:06:40.853Z,53.20
2019-05-01T00:09:11.867Z,49.97
2019-05-01T00:11:41.373Z,46.53
2019-05-01T00:14:10.740Z,53.03
2019-05-01T00:16:40.790Z,53.60
2019-05-01T00:19:10.067Z,43.20
2019-05-01T00:21:39.378Z,47.47
2019-05-01T00:24:09.141Z,44.30
2019-05-01T00:26:38.437Z,46.10
2019-05-01T00:29:07.979Z,44.60
2019-05-01T00:31:37.274Z,43.93
2019-05-01T00:34:06.688Z,49.87
2019-05-01T00:36:36.064Z,49.17
2019-05-01T00:39:07.387Z,50.67
2019-05-01T00:41:36.732Z,48.80
2019-05-01T00:44:06.024Z,46.83
2019-05-01T00:46:35.313Z,42.73
2019-05-01T00:49:04.546Z,47.33
2019-05-01T00:51:33.855Z,54.90
2019-05-01T00:54:04.100Z,53.77
2019-05-01T00:56:41.164Z,58.00
2019-05-01T00:59:30.089Z,44.10
2019-05-01T01:02:15.588Z,45.20
2019-05-01T01:04:44.950Z,48.33
2019-05-01T01:07:14.248Z,49.10
2019-05-01T01:09:43.574Z,47.90
2019-05-01T01:12:12.874Z,53.50
2019-05-01T01:14:42.233Z,47.93
2019-05-01T01:17:11.552Z,44.37
2019-05-01T01:19:40.921Z,49.10
2019-05-01T01:22:10.204Z,57.67
2019-05-01T01:24:39.723Z,43.17
2019-05-01T01:27:09.152Z,40.40
2019-05-01T01:29:38.423Z,44.53
2019-05-01T01:32:07.774Z,41.13
2019-05-01T01:34:37.105Z,49.43
2019-05-01T01:37:06.337Z,47.80
2019-05-01T01:39:35.687Z,44.73
2019-05-01T01:42:05.978Z,46.30
2019-05-01T01:44:43.884Z,43.77
2019-05-01T01:47:13.563Z,41.77
2019-05-01T01:49:42.990Z,49.67
2019-05-01T01:52:13.403Z,48.23
2019-05-01T01:54:42.803Z,43.77
2019-05-01T01:57:12.336Z,46.73
2019-05-01T01:59:42.089Z,54.27
2019-05-01T02:02:27.542Z,40.17
2019-05-01T02:05:15.147Z,44.30
2019-05-01T02:07:44.991Z,46.20
2019-05-01T02:10:16.224Z,48.23
2019-05-01T02:12:45.826Z,48.83
2019-05-01T02:15:15.423Z,44.20
2019-05-01T02:17:44.748Z,43.40
2019-05-01T02:20:14.056Z,51.03
2019-05-01T02:22:43.333Z,45.80
2019-05-01T02:25:13.877Z,44.30
2019-05-01T02:27:52.222Z,51.07
2019-05-01T02:30:22.833Z,48.17
2019-05-01T02:32:53.785Z,47.70
2019-05-01T02:35:25.682Z,44.77
2019-05-01T02:37:55.767Z,48.50
2019-05-01T02:40:45.273Z,46.40
2019-05-01T02:43:17.544Z,43.30
2019-05-01T02:45:50.765Z,49.43
2019-05-01T02:48:24.145Z,49.67
2019-05-01T02:50:56.809Z,39.07
2019-05-01T02:53:27.254Z,42.67
2019-05-01T02:56:33.182Z,49.50
2019-05-01T02:59:06.200Z,46.63
2019-05-01T03:01:47.014Z,54.90
2019-05-01T03:04:10.377Z,47.03
2019-05-01T03:06:41.547Z,49.63
2019-05-01T03:09:10.908Z,50.27
2019-05-01T03:11:42.356Z,44.97
2019-05-01T03:14:17.730Z,39.43
2019-05-01T03:16:48.529Z,44.97
2019-05-01T03:19:38.376Z,46.00
2019-05-01T03:22:14.833Z,44.97
2019-05-01T03:24:44.218Z,43.67
2019-05-01T03:27:13.890Z,43.90
2019-05-01T03:29:43.163Z,51.37
2019-05-01T03:32:17.985Z,43.60
2019-05-01T03:34:43.835Z,42.10
2019-05-01T03:37:14.048Z,44.83
2019-05-01T03:39:43.363Z,44.13
2019-05-01T03:42:13.451Z,44.47
2019-05-01T03:44:42.825Z,44.07
2019-05-01T03:47:12.153Z,46.80
2019-05-01T03:49:41.786Z,44.37
2019-05-01T03:52:11.126Z,55.47
2019-05-01T03:54:40.560Z,48.70
2019-05-01T03:57:12.729Z,41.87
2019-05-01T03:59:43.285Z,46.50
2019-05-01T04:02:34.118Z,45.17
2019-05-01T04:05:03.319Z,47.53
2019-05-01T04:07:36.292Z,49.33
2019-05-01T04:10:04.366Z,48.73
2019-05-01T04:12:33.689Z,44.63
2019-05-01T04:15:03.340Z,51.93
2019-05-01T04:17:58.518Z,49.63
2019-05-01T04:20:29.314Z,44.70
2019-05-01T04:22:59.024Z,48.03
2019-05-01T04:25:28.521Z,53.23
2019-05-01T04:27:59.717Z,50.43
2019-05-01T04:30:59.009Z,51.43
2019-05-01T04:33:29.531Z,67.97
2019-05-01T04:36:04.299Z,46.17
2019-05-01T04:38:34.151Z,48.87
2019-05-01T04:41:03.797Z,45.90
2019-05-01T04:43:33.829Z,52.17
2019-05-01T04:46:03.604Z,53.50
2019-05-01T04:48:33.447Z,48.40
2019-05-01T04:51:03.072Z,47.90
2019-05-01T04:53:32.803Z,49.37
2019-05-01T04:56:02.515Z,50.63
2019-05-01T04:58:32.039Z,64.93
2019-05-01T05:01:01.933Z,59.33
2019-05-01T05:03:31.369Z,93.10
2019-05-01T05:06:01.337Z,90.27
2019-05-01T05:08:31.562Z,100.87
2019-05-01T05:11:02.487Z,93.73
2019-05-01T05:13:40.269Z,105.40
2019-05-01T05:16:27.020Z,93.90
2019-05-01T05:18:56.536Z,103.53
2019-05-01T05:21:26.211Z,107.10
2019-05-01T05:23:55.542Z,102.77
2019-05-01T05:26:25.956Z,125.30
2019-05-01T05:28:57.013Z,92.90
2019-05-01T05:31:27.839Z,91.97
2019-05-01T05:34:00.135Z,100.80
2019-05-01T05:36:31.251Z,112.40
2019-05-01T05:39:26.542Z,174.67
2019-05-01T05:41:57.048Z,98.27
2019-05-01T05:44:26.667Z,102.10
2019-05-01T05:46:55.964Z,117.80
2019-05-01T05:49:25.496Z,107.63
2019-05-01T05:52:05.790Z,103.70
2019-05-01T05:54:54.817Z,116.13
2019-05-01T05:57:36.580Z,132.63
2019-05-01T06:00:26.337Z,118.93
2019-05-01T06:03:05.739Z,102.07
2019-05-01T06:06:03.124Z,142.60
2019-05-01T06:08:34.729Z,118.97
2019-05-01T06:11:22.308Z,120.17
2019-05-01T06:14:12.676Z,126.93
2019-05-01T06:17:04.133Z,172.60
2019-05-01T06:19:39.071Z,143.00
2019-05-01T06:22:27.136Z,159.30
2019-05-01T06:25:21.254Z,154.50
2019-05-01T06:27:44.799Z,137.27
2019-05-01T06:30:13.676Z,147.10
2019-05-01T06:32:43.460Z,131.13
2019-05-01T06:35:12.882Z,131.40
2019-05-01T06:38:03.675Z,119.77
2019-05-01T06:40:38.928Z,103.43
2019-05-01T06:43:13.499Z,109.27
2019-05-01T06:45:51.602Z,117.27
2019-05-01T06:48:19.720Z,105.20
2019-05-01T06:50:55.949Z,120.10
2019-05-01T06:53:25.517Z,107.33
2019-05-01T06:55:54.960Z,110.20
2019-05-01T06:58:24.806Z,98.87
2019-05-01T07:00:54.204Z,134.50
2019-05-01T07:03:23.633Z,137.33
2019-05-01T07:05:54.238Z,135.40
2019-05-01T07:08:25.054Z,122.63
2019-05-01T07:10:55.659Z,130.00
2019-05-01T07:13:25.013Z,113.60
2019-05-01T07:15:58.399Z,127.77
2019-05-01T07:18:29.005Z,123.43
2019-05-01T07:20:56.453Z,119.03
2019-05-01T07:23:25.782Z,107.60
2019-05-01T07:25:55.531Z,108.30
2019-05-01T07:28:29.019Z,104.00
2019-05-01T07:31:00.765Z,97.47
2019-05-01T07:33:30.405Z,111.90
2019-05-01T07:35:59.725Z,105.77
2019-05-01T07:38:32.856Z,104.00
2019-05-01T07:41:03.346Z,121.47
2019-05-01T07:43:43.668Z,121.50
2019-05-01T07:46:21.348Z,111.10
2019-05-01T07:48:50.980Z,93.37
2019-05-01T07:51:20.673Z,95.27
2019-05-01T07:53:51.136Z,111.23
2019-05-01T07:56:22.773Z,101.90
2019-05-01T07:58:53.420Z,104.20
2019-05-01T08:01:54.400Z,85.17
2019-05-01T08:04:35.177Z,87.30
2019-05-01T08:06:56.962Z,91.23
2019-05-01T08:09:24.812Z,88.67
2019-05-01T08:11:54.117Z,79.37
2019-05-01T08:14:23.322Z,78.87
2019-05-01T08:16:52.670Z,74.30
2019-05-01T08:19:47.106Z,83.63
2019-05-01T08:22:19.710Z,77.50
2019-05-01T08:24:49.064Z,68.33
2019-05-01T08:27:43.456Z,83.73
2019-05-01T08:30:30.888Z,69.13
2019-05-01T08:33:19.169Z,73.60
2019-05-01T08:35:48.420Z,79.07
2019-05-01T08:38:17.848Z,77.07
2019-05-01T08:40:50.674Z,77.33
2019-05-01T08:43:19.473Z,76.97
2019-05-01T08:46:06.715Z,79.80
2019-05-01T08:48:43.857Z,66.43
2019-05-01T08:51:13.242Z,62.47
2019-05-01T08:53:42.474Z,68.80
2019-05-01T08:56:11.825Z,73.90
2019-05-01T08:58:44.772Z,82.10
2019-05-01T09:01:15.031Z,75.37
2019-05-01T09:03:43.888Z,82.47
2019-05-01T09:06:14.561Z,76.80
2019-05-01T09:08:44.031Z,73.37
2019-05-01T09:11:13.422Z,67.33
2019-05-01T09:13:42.793Z,62.40
2019-05-01T09:16:12.133Z,70.37
2019-05-01T09:18:41.684Z,68.70
2019-05-01T09:21:11.155Z,66.37
2019-05-01T09:23:40.449Z,71.90
2019-05-01T09:26:17.804Z,76.60
2019-05-01T09:28:52.827Z,79.60
2019-05-01T09:31:24.325Z,78.60
2019-05-01T09:33:53.604Z,73.93
2019-05-01T09:36:22.908Z,73.93
2019-05-01T09:38:52.509Z,68.73
2019-05-01T09:41:21.947Z,71.97
2019-05-01T09:43:51.638Z,81.20
2019-05-01T09:46:20.979Z,73.40
2019-05-01T09:48:50.489Z,67.40
2019-05-01T09:51:47.502Z,73.27
2019-05-01T09:54:27.056Z,65.97
2019-05-01T09:56:56.430Z,68.43
2019-05-01T09:59:32.298Z,68.00
2019-05-01T10:02:02.937Z,74.67
2019-05-01T10:04:32.863Z,72.70
2019-05-01T10:07:02.374Z,84.07
2019-05-01T10:09:32.153Z,61.90
2019-05-01T10:12:01.500Z,68.50
2019-05-01T10:14:31.591Z,74.00
2019-05-01T10:17:01.903Z,71.93
2019-05-01T10:19:34.144Z,72.43
2019-05-01T10:22:04.318Z,64.63
2019-05-01T10:24:37.596Z,68.20
2019-05-01T10:27:06.956Z,71.90
2019-05-01T10:30:02.985Z,67.33
2019-05-01T10:32:57.939Z,62.57
2019-05-01T10:35:42.989Z,69.00
2019-05-01T10:38:09.414Z,74.90
2019-05-01T10:40:39.653Z,61.10
2019-05-01T10:43:08.952Z,68.10
2019-05-01T10:45:38.615Z,63.70
2019-05-01T10:48:07.972Z,64.80
2019-05-01T10:50:37.491Z,67.63
2019-05-01T10:53:07.265Z,62.30
2019-05-01T10:55:36.853Z,59.60
2019-05-01T10:58:06.322Z,61.37
2019-05-01T11:00:37.301Z,61.07
2019-05-01T11:03:06.595Z,60.20
2019-05-01T11:05:35.977Z,61.40
2019-05-01T11:08:06.010Z,61.87
2019-05-01T11:10:35.322Z,60.00
2019-05-01T11:13:07.652Z,62.03
2019-05-01T11:15:35.813Z,58.77
2019-05-01T11:18:07.061Z,55.60
2019-05-01T11:20:37.478Z,60.47
2019-05-01T11:23:09.483Z,56.37
2019-05-01T11:25:39.401Z,55.03
2019-05-01T11:28:08.862Z,58.10
2019-05-01T11:30:38.499Z,61.33
2019-05-01T11:33:13.892Z,56.07
2019-05-01T11:36:09.690Z,53.23
2019-05-01T11:38:45.542Z,47.33
2019-05-01T11:41:27.975Z,49.50
2019-05-01T11:43:57.258Z,52.33
2019-05-01T11:46:26.978Z,53.67
2019-05-01T11:48:56.329Z,48.53
2019-05-01T11:51:25.659Z,55.50
2019-05-01T11:53:55.096Z,52.90
2019-05-01T11:56:24.761Z,58.13
2019-05-01T11:58:54.485Z,56.07
2019-05-01T12:01:25.350Z,57.00
2019-05-01T12:03:54.592Z,52.77
2019-05-01T12:06:24.297Z,54.83
2019-05-01T12:08:53.898Z,55.17
2019-05-01T12:11:25.082Z,54.80
2019-05-01T12:13:54.434Z,57.93
2019-05-01T12:16:41.310Z,59.73
2019-05-01T12:19:10.659Z,56.77
2019-05-01T12:21:40.039Z,58.93
2019-05-01T12:24:09.313Z,56.83
2019-05-01T12:26:38.638Z,57.77
2019-05-01T12:29:09.373Z,55.20
2019-05-01T12:31:38.668Z,57.50
2019-05-01T12:34:08.035Z,65.20
2019-05-01T12:36:38.160Z,56.30
2019-05-01T12:39:08.759Z,53.70
2019-05-01T12:41:44.705Z,52.37
2019-05-01T12:44:16.816Z,60.90
2019-05-01T12:46:59.139Z,57.70
2019-05-01T12:49:28.532Z,58.37
2019-05-01T12:52:10.382Z,53.07
2019-05-01T12:54:43.524Z,65.50
2019-05-01T12:57:12.913Z,59.97
2019-05-01T12:59:42.240Z,57.73
2019-05-01T13:02:13.188Z,67.33
2019-05-01T13:04:42.505Z,53.90
2019-05-01T13:07:11.890Z,56.63
2019-05-01T13:09:41.205Z,56.07
2019-05-01T13:12:10.508Z,62.63
2019-05-01T13:14:39.873Z,56.97
2019-05-01T13:17:09.211Z,59.30
2019-05-01T13:19:38.542Z,59.33
2019-05-01T13:22:08.395Z,52.90
2019-05-01T13:24:50.102Z,56.90
2019-05-01T13:27:41.708Z,62.87
2019-05-01T13:30:27.980Z,54.20
2019-05-01T13:32:57.320Z,62.27
2019-05-01T13:35:26.983Z,55.53
2019-05-01T13:37:56.295Z,60.23
2019-05-01T13:40:25.571Z,61.50
2019-05-01T13:42:54.899Z,57.80
2019-05-01T13:45:24.275Z,53.23
2019-05-01T13:47:54.615Z,59.93
2019-05-01T13:50:24.682Z,59.73
2019-05-01T13:52:54.028Z,64.03
2019-05-01T13:55:23.341Z,54.93
2019-05-01T13:57:52.651Z,57.37
2019-05-01T14:00:23.375Z,58.07
2019-05-01T14:02:52.813Z,59.30
2019-05-01T14:05:22.888Z,53.97
2019-05-01T14:07:52.284Z,52.00
2019-05-01T14:10:22.651Z,61.00
2019-05-01T14:12:51.976Z,58.10
2019-05-01T14:15:21.281Z,62.53
2019-05-01T14:17:51.141Z,64.67
2019-05-01T14:20:38.600Z,64.23
2019-05-01T14:23:36.049Z,57.50
2019-05-01T14:26:24.458Z,55.70
2019-05-01T14:28:53.901Z,65.27
2019-05-01T14:31:23.257Z,64.33
2019-05-01T14:33:52.474Z,62.27
2019-05-01T14:36:21.789Z,67.53
2019-05-01T14:38:51.087Z,64.00
2019-05-01T14:41:20.388Z,65.00
2019-05-01T14:43:50.111Z,57.90
2019-05-01T14:46:19.423Z,60.10
2019-05-01T14:48:49.907Z,64.47
2019-05-01T14:51:21.585Z,57.50
2019-05-01T14:53:50.650Z,59.23
2019-05-01T14:56:19.982Z,58.83
2019-05-01T14:58:49.812Z,68.93
2019-05-01T15:01:19.106Z,63.37
2019-05-01T15:03:50.084Z,61.93
2019-05-01T15:06:19.409Z,60.53
2019-05-01T15:08:48.810Z,63.03
2019-05-01T15:11:18.101Z,68.50
2019-05-01T15:14:15.644Z,59.07
2019-05-01T15:16:52.537Z,66.23
2019-05-01T15:19:29.468Z,62.80
2019-05-01T15:21:58.760Z,65.47
2019-05-01T15:24:28.597Z,58.13
2019-05-01T15:26:57.945Z,62.17
2019-05-01T15:29:28.685Z,66.60
2019-05-01T15:31:58.013Z,65.40
2019-05-01T15:34:27.352Z,66.07
2019-05-01T15:36:56.674Z,63.27
2019-05-01T15:39:34.005Z,64.47
2019-05-01T15:42:26.302Z,72.47
2019-05-01T15:44:55.624Z,63.57
2019-05-01T15:47:25.025Z,61.17
2019-05-01T15:49:54.761Z,59.10
2019-05-01T15:52:25.807Z,59.03
2019-05-01T15:54:56.224Z,61.27
2019-05-01T15:57:25.833Z,60.80
2019-05-01T15:59:55.660Z,65.50
2019-05-01T16:02:26.076Z,61.07
2019-05-01T16:04:55.358Z,62.57
2019-05-01T16:07:24.910Z,59.17
2019-05-01T16:09:54.690Z,65.43
2019-05-01T16:12:32.599Z,59.67
2019-05-01T16:15:02.411Z,58.07
2019-05-01T16:17:32.140Z,56.60
2019-05-01T16:20:04.287Z,63.60
2019-05-01T16:22:33.646Z,56.73
2019-05-01T16:25:03.129Z,63.60
2019-05-01T16:27:32.579Z,58.80
2019-05-01T16:30:05.460Z,60.43
2019-05-01T16:32:34.874Z,58.13
2019-05-01T16:35:04.778Z,62.43
2019-05-01T16:37:34.083Z,62.60
2019-05-01T16:40:28.536Z,65.53
2019-05-01T16:42:58.973Z,61.40
2019-05-01T16:45:28.289Z,63.77
2019-05-01T16:47:59.093Z,62.10
2019-05-01T16:50:28.415Z,64.50
2019-05-01T16:52:59.033Z,66.67
2019-05-01T16:55:28.481Z,64.37
2019-05-01T16:57:58.151Z,63.47
2019-05-01T17:01:00.900Z,63.57
2019-05-01T17:03:39.859Z,62.10
2019-05-01T17:06:26.800Z,63.87
2019-05-01T17:08:59.522Z,59.40
2019-05-01T17:11:31.071Z,62.47
2019-05-01T17:14:01.568Z,58.20
2019-05-01T17:16:30.891Z,62.77
2019-05-01T17:19:00.216Z,66.67
2019-05-01T17:21:30.104Z,63.17
2019-05-01T17:23:59.728Z,62.20
2019-05-01T17:26:30.748Z,67.60
2019-05-01T17:29:03.300Z,63.77
2019-05-01T17:31:32.659Z,76.57
2019-05-01T17:34:02.146Z,67.57
2019-05-01T17:36:32.561Z,61.97
2019-05-01T17:39:03.885Z,67.67
2019-05-01T17:41:33.233Z,68.47
2019-05-01T17:44:03.727Z,61.10
2019-05-01T17:46:33.205Z,63.23
2019-05-01T17:49:04.293Z,70.83
2019-05-01T17:51:33.828Z,70.77
2019-05-01T17:54:08.657Z,67.13
2019-05-01T17:56:38.052Z,66.80
2019-05-01T17:59:07.367Z,75.50
2019-05-01T18:01:55.630Z,75.27
2019-05-01T18:04:35.443Z,71.30
2019-05-01T18:07:05.918Z,75.63
2019-05-01T18:09:35.267Z,73.40
2019-05-01T18:12:04.952Z,76.37
2019-05-01T18:14:34.291Z,73.50
2019-05-01T18:17:03.633Z,75.03
2019-05-01T18:19:32.984Z,71.37
2019-05-01T18:22:19.711Z,81.10
2019-05-01T18:24:58.506Z,70.30
2019-05-01T18:27:59.089Z,71.13
2019-05-01T18:30:33.873Z,82.77
2019-05-01T18:33:03.572Z,72.30
2019-05-01T18:35:32.879Z,81.90
2019-05-01T18:38:27.254Z,82.20
2019-05-01T18:41:03.135Z,76.40
2019-05-01T18:43:33.881Z,69.90
2019-05-01T18:46:08.818Z,72.47
2019-05-01T18:48:42.252Z,70.73
2019-05-01T18:51:11.592Z,71.40
2019-05-01T18:53:41.671Z,73.67
2019-05-01T18:56:11.024Z,72.33
2019-05-01T18:58:40.310Z,73.87
2019-05-01T19:01:11.159Z,72.97
2019-05-01T19:03:42.185Z,73.87
2019-05-01T19:06:12.000Z,73.07
2019-05-01T19:08:41.323Z,75.40
2019-05-01T19:11:12.592Z,74.27
2019-05-01T19:13:42.137Z,68.33
2019-05-01T19:16:12.756Z,70.43
2019-05-01T19:18:43.627Z,77.77
2019-05-01T19:21:13.001Z,66.90
2019-05-01T19:23:42.403Z,73.80
2019-05-01T19:26:13.383Z,80.27
2019-05-01T19:28:42.775Z,79.80
2019-05-01T19:31:12.143Z,64.03
2019-05-01T19:33:42.077Z,67.83
2019-05-01T19:36:11.368Z,74.50
2019-05-01T19:38:40.677Z,75.63
2019-05-01T19:41:14.135Z,78.70
2019-05-01T19:43:42.168Z,73.10
2019-05-01T19:46:11.756Z,79.70
2019-05-01T19:48:45.459Z,78.87
2019-05-01T19:51:12.139Z,74.10
2019-05-01T19:53:41.480Z,81.17
2019-05-01T19:56:11.232Z,89.97
2019-05-01T19:58:40.515Z,90.27
2019-05-01T20:01:09.908Z,80.53
2019-05-01T20:03:39.295Z,81.90
2019-05-01T20:06:08.845Z,82.10
2019-05-01T20:08:40.533Z,91.00
2019-05-01T20:11:10.073Z,78.17
2019-05-01T20:13:39.817Z,77.50
2019-05-01T20:16:10.824Z,76.03
2019-05-01T20:18:40.153Z,87.03
2019-05-01T20:21:12.269Z,73.13
2019-05-01T20:23:41.604Z,81.83
2019-05-01T20:26:11.008Z,83.17
2019-05-01T20:28:40.414Z,77.20
2019-05-01T20:31:09.862Z,78.33
2019-05-01T20:33:44.111Z,87.13
2019-05-01T20:36:12.313Z,84.80
2019-05-01T20:38:41.908Z,79.63
2019-05-01T20:41:16.064Z,93.57
2019-05-01T20:43:45.460Z,95.93
2019-05-01T20:46:15.009Z,102.03
2019-05-01T20:48:44.789Z,93.93
2019-05-01T20:51:14.166Z,94.13
2019-05-01T20:53:43.522Z,95.33
2019-05-01T20:56:25.471Z,97.37
2019-05-01T20:58:57.720Z,89.83
2019-05-01T21:01:28.231Z,88.23
2019-05-01T21:04:15.092Z,84.97
2019-05-01T21:06:47.669Z,90.37
2019-05-01T21:09:22.901Z,93.00
2019-05-01T21:12:05.045Z,98.83
2019-05-01T21:14:27.782Z,91.83
2019-05-01T21:16:57.169Z,95.57
2019-05-01T21:19:28.759Z,83.53
2019-05-01T21:21:57.885Z,91.50
2019-05-01T21:24:27.239Z,95.67
2019-05-01T21:26:57.046Z,94.73
2019-05-01T21:29:26.462Z,93.40
2019-05-01T21:31:55.824Z,85.83
2019-05-01T21:34:25.203Z,91.97
2019-05-01T21:36:54.496Z,100.60
2019-05-01T21:39:26.740Z,95.20
2019-05-01T21:41:55.245Z,101.70
2019-05-01T21:44:25.131Z,111.70
2019-05-01T21:46:54.469Z,101.47
2019-05-01T21:49:23.880Z,93.40
2019-05-01T21:51:53.184Z,98.47
2019-05-01T21:54:22.604Z,115.83
2019-05-01T21:56:51.928Z,108.40
2019-05-01T21:59:21.353Z,103.20
2019-05-01T22:01:50.676Z,94.10
2019-05-01T22:04:20.331Z,98.83
2019-05-01T22:06:52.012Z,103.87
2019-05-01T22:09:23.145Z,97.83
2019-05-01T22:11:52.379Z,97.63
2019-05-01T22:14:39.536Z,101.57
2019-05-01T22:17:16.278Z,100.53
2019-05-01T22:19:46.059Z,105.10
2019-05-01T22:22:33.271Z,102.93
2019-05-01T22:25:21.621Z,97.10
2019-05-01T22:28:03.192Z,110.97
2019-05-01T22:30:36.927Z,105.47
2019-05-01T22:33:06.479Z,103.57
2019-05-01T22:35:42.036Z,101.00
2019-05-01T22:38:11.686Z,101.30
2019-05-01T22:41:06.274Z,119.87
2019-05-01T22:43:28.989Z,119.00
2019-05-01T22:46:01.446Z,115.67
2019-05-01T22:48:29.549Z,117.43
2019-05-01T22:51:03.693Z,124.37
2019-05-01T22:53:33.146Z,118.07
2019-05-01T22:56:04.069Z,110.53
2019-05-01T22:58:33.492Z,110.30
2019-05-01T23:01:04.768Z,113.30
2019-05-01T23:03:46.466Z,112.47
2019-05-01T23:06:15.765Z,119.47
2019-05-01T23:08:45.352Z,113.33
2019-05-01T23:11:20.063Z,116.30
2019-05-01T23:13:45.750Z,113.17
2019-05-01T23:16:17.552Z,114.33
2019-05-01T23:18:52.041Z,111.17
2019-05-01T23:21:18.513Z,118.00
2019-05-01T23:23:47.780Z,111.23
2019-05-01T23:26:18.599Z,116.77
2019-05-01T23:28:48.209Z,123.50
2019-05-01T23:31:17.792Z,112.70
2019-05-01T23:33:50.681Z,111.13
2019-05-01T23:36:23.740Z,126.20
2019-05-01T23:38:49.188Z,124.27
2019-05-01T23:41:18.460Z,115.97
2019-05-01T23:43:47.848Z,132.77
2019-05-01T23:46:17.154Z,110.57
2019-05-01T23:48:46.744Z,123.50
2019-05-01T23:51:16.397Z,118.30
2019-05-01T23:53:48.230Z,118.13
2019-05-01T23:56:16.762Z,115.77
2019-05-01T23:58:46.063Z,121.83
